Time;durP1;ratioP1;P1;durP2;ratioP2;P2;SDS_P1;SDS_P2;PMS_P1;PMS_P2;Temp;Humidity;BMP_temperature;BMP_pressure;BME280_temperature;BME280_humidity;BME280_pressure;Samples;Min_cycle;Max_cycle;Signal;HPM_P1;HPM_P2
2023/07/12 00:00:45;;;;;;;1.40;1.30;;;24.70;47.10;;;;;;4998998;28;20465;-62
2023/07/12 00:03:12;;;;;;;1.47;1.37;;;24.70;47.10;;;;;;4999464;28;20472;-61
2023/07/12 00:05:38;;;;;;;1.20;1.10;;;24.70;47.10;;;;;;4998286;28;20468;-63
2023/07/12 00:08:04;;;;;;;1.33;1.23;;;24.70;47.10;;;;;;4993151;28;20449;-62
2023/07/12 00:10:32;;;;;;;1.30;1.20;;;24.70;47.10;;;;;;4999271;28;20334;-62
2023/07/12 00:12:58;;;;;;;1.50;1.40;;;24.70;47.10;;;;;;4995927;28;20506;-63
2023/07/12 00:15:28;;;;;;;1.30;1.20;;;24.70;47.10;;;;;;4998786;28;20461;-63
2023/07/12 00:17:54;;;;;;;1.40;1.30;;;24.70;47.10;;;;;;4997176;28;20219;-62
2023/07/12 00:20:23;;;;;;;1.40;1.30;;;24.70;47.20;;;;;;5000557;28;20484;-62
2023/07/12 00:22:50;;;;;;;1.20;1.10;;;24.70;47.10;;;;;;4999260;28;20507;-64
2023/07/12 00:25:17;;;;;;;1.10;1.00;;;24.70;47.10;;;;;;5000147;28;20536;-62
2023/07/12 00:27:43;;;;;;;1.30;1.20;;;24.70;47.10;;;;;;4999480;28;20919;-62
2023/07/12 00:30:15;;;;;;;1.30;1.20;;;24.70;47.20;;;;;;4995542;28;20565;-62
2023/07/12 00:32:40;;;;;;;1.63;1.53;;;24.70;47.20;;;;;;4999024;28;20485;-62
2023/07/12 00:35:06;;;;;;;1.30;1.20;;;24.70;47.20;;;;;;4999772;28;20511;-62
2023/07/12 00:37:32;;;;;;;1.47;1.37;;;24.70;47.10;;;;;;4997141;28;20235;-63
2023/07/12 00:39:57;;;;;;;1.30;1.20;;;24.70;47.20;;;;;;4995967;28;20452;-62
2023/07/12 00:42:35;;;;;;;1.30;1.20;;;24.70;47.10;;;;;;4996809;28;20606;-63
2023/07/12 00:45:03;;;;;;;1.30;1.20;;;24.70;47.20;;;;;;4997907;28;20226;-62
2023/07/12 00:47:30;;;;;;;1.37;1.27;;;24.70;47.20;;;;;;4998359;28;21038;-63
2023/07/12 00:49:55;;;;;;;1.30;1.20;;;24.70;47.10;;;;;;4996696;28;20465;-63
2023/07/12 00:52:22;;;;;;;1.60;1.50;;;24.70;47.20;;;;;;4997025;28;20452;-62
2023/07/12 00:54:55;;;;;;;1.30;1.20;;;24.70;47.20;;;;;;4996091;28;20243;-62
2023/07/12 00:57:22;;;;;;;1.30;1.20;;;24.70;47.20;;;;;;4996519;28;20559;-63
2023/07/12 00:59:49;;;;;;;1.60;1.50;;;24.70;47.20;;;;;;4997219;28;20468;-64
2023/07/12 01:02:15;;;;;;;1.20;1.10;;;24.70;47.30;;;;;;4997494;28;20977;-62
2023/07/12 01:04:44;;;;;;;1.33;1.23;;;24.70;47.10;;;;;;4997477;28;20463;-62
2023/07/12 01:07:10;;;;;;;1.20;1.10;;;24.70;47.20;;;;;;4998858;28;20230;-62
2023/07/12 01:09:35;;;;;;;1.30;1.20;;;24.70;47.20;;;;;;4995056;28;20472;-64
2023/07/12 01:12:01;;;;;;;1.50;1.40;;;24.70;47.20;;;;;;4997359;28;20247;-62
2023/07/12 01:14:27;;;;;;;1.30;1.20;;;24.70;47.20;;;;;;4993146;28;20215;-62
2023/07/12 01:17:03;;;;;;;1.30;1.20;;;24.70;47.20;;;;;;4996338;28;20228;-61
2023/07/12 01:19:31;;;;;;;1.10;1.00;;;24.70;47.20;;;;;;4992214;28;20237;-62
2023/07/12 01:21:57;;;;;;;1.23;1.13;;;24.70;47.20;;;;;;4997412;28;20507;-62
2023/07/12 01:24:25;;;;;;;1.37;1.27;;;24.70;47.20;;;;;;4994447;28;21004;-63
2023/07/12 01:26:53;;;;;;;1.20;1.10;;;24.70;47.20;;;;;;4982301;28;20313;-63
2023/07/12 01:29:20;;;;;;;1.00;1.00;;;24.70;47.20;;;;;;4994867;28;20508;-63
2023/07/12 01:31:46;;;;;;;1.37;1.27;;;24.70;47.20;;;;;;4999541;28;20544;-63
2023/07/12 01:34:12;;;;;;;1.30;1.20;;;24.70;47.20;;;;;;4996501;28;20449;-62
2023/07/12 01:36:38;;;;;;;1.20;1.10;;;24.70;47.30;;;;;;4998490;28;20508;-62
2023/07/12 01:39:05;;;;;;;1.20;1.10;;;24.70;47.20;;;;;;4995662;28;20456;-62
2023/07/12 01:41:31;;;;;;;1.20;0.97;;;24.70;47.20;;;;;;4997506;28;20305;-62
2023/07/12 01:43:57;;;;;;;1.20;1.10;;;24.70;47.20;;;;;;4994031;28;20960;-62
2023/07/12 01:46:24;;;;;;;3.83;1.30;;;24.70;47.20;;;;;;5000166;28;20505;-61
2023/07/12 01:48:50;;;;;;;1.20;1.10;;;24.70;47.30;;;;;;4991228;28;20223;-62
2023/07/12 01:51:17;;;;;;;1.20;1.10;;;24.70;47.20;;;;;;4997381;28;20450;-63
2023/07/12 01:53:43;;;;;;;1.07;1.07;;;24.70;47.20;;;;;;4985225;28;20474;-62
2023/07/12 01:56:11;;;;;;;1.20;1.10;;;24.70;47.30;;;;;;4997816;28;20460;-62
2023/07/12 01:58:36;;;;;;;1.30;1.20;;;24.70;47.20;;;;;;4995726;28;20337;-63
2023/07/12 02:01:02;;;;;;;1.30;1.20;;;24.70;47.30;;;;;;4997153;28;20473;-61
2023/07/12 02:03:28;;;;;;;1.20;1.10;;;24.70;47.30;;;;;;4996754;28;20292;-62
2023/07/12 02:05:54;;;;;;;1.10;1.00;;;24.70;47.20;;;;;;4998108;28;20337;-63
2023/07/12 02:08:20;;;;;;;0.93;0.93;;;24.70;47.30;;;;;;4992761;28;20237;-62
2023/07/12 02:10:46;;;;;;;1.30;1.20;;;24.70;47.20;;;;;;4996008;28;20468;-62
2023/07/12 02:13:12;;;;;;;1.30;1.20;;;24.70;47.20;;;;;;4993538;28;20532;-62
2023/07/12 02:15:38;;;;;;;1.20;1.10;;;24.70;47.30;;;;;;4994716;28;20541;-63
2023/07/12 02:18:04;;;;;;;1.37;1.27;;;24.70;47.20;;;;;;4992724;28;20574;-62
2023/07/12 02:20:29;;;;;;;0.97;0.97;;;24.70;47.20;;;;;;4995957;28;20660;-62
2023/07/12 02:22:55;;;;;;;1.03;1.03;;;24.70;47.30;;;;;;4993996;28;20259;-63
2023/07/12 02:25:22;;;;;;;1.00;0.90;;;24.70;47.20;;;;;;4998130;28;20255;-63
2023/07/12 02:27:48;;;;;;;1.30;1.20;;;24.70;47.20;;;;;;4997117;28;20667;-62
2023/07/12 02:30:16;;;;;;;1.00;1.00;;;24.70;47.30;;;;;;4994742;28;20622;-62
2023/07/12 02:32:43;;;;;;;1.30;1.20;;;24.60;47.20;;;;;;4995757;28;20965;-62
2023/07/12 02:35:09;;;;;;;1.10;1.00;;;24.60;47.20;;;;;;4997129;28;20453;-63
2023/07/12 02:37:35;;;;;;;1.30;1.20;;;24.60;47.20;;;;;;4997394;28;20449;-63
2023/07/12 02:40:03;;;;;;;1.13;1.03;;;24.70;47.30;;;;;;4995122;28;20223;-63
2023/07/12 02:42:29;;;;;;;1.13;1.03;;;24.70;47.30;;;;;;4992622;28;20711;-62
2023/07/12 02:44:54;;;;;;;1.00;1.00;;;24.60;47.20;;;;;;4994915;28;20968;-64
2023/07/12 02:47:20;;;;;;;0.90;0.90;;;24.60;47.20;;;;;;4993436;28;20242;-63
2023/07/12 02:49:45;;;;;;;1.23;1.13;;;24.60;47.20;;;;;;4996931;28;20224;-63
2023/07/12 02:52:11;;;;;;;1.17;1.13;;;24.70;47.30;;;;;;4995572;28;20259;-62
2023/07/12 02:54:36;;;;;;;1.00;1.00;;;24.70;47.30;;;;;;4993263;28;20646;-63
2023/07/12 02:57:03;;;;;;;1.00;1.00;;;24.70;47.30;;;;;;4994080;28;20286;-63
2023/07/12 02:59:30;;;;;;;1.17;1.07;;;24.60;47.20;;;;;;4993250;28;20223;-62
2023/07/12 03:01:56;;;;;;;1.20;1.10;;;24.60;47.20;;;;;;5001216;28;20564;-61
2023/07/12 03:04:22;;;;;;;0.90;0.90;;;24.60;47.20;;;;;;4998016;28;20543;-64
2023/07/12 03:06:48;;;;;;;1.17;1.07;;;24.60;47.20;;;;;;5000027;28;20237;-61
2023/07/12 03:09:14;;;;;;;1.10;1.00;;;24.60;47.20;;;;;;5000294;28;20444;-61
2023/07/12 03:11:40;;;;;;;1.20;1.10;;;24.60;47.20;;;;;;4999754;28;21146;-62
2023/07/12 03:14:06;;;;;;;1.00;1.00;;;24.60;47.20;;;;;;4997061;28;20487;-62
2023/07/12 03:16:32;;;;;;;1.20;1.00;;;24.60;47.20;;;;;;4999569;28;20680;-62
2023/07/12 03:19:00;;;;;;;1.20;1.10;;;24.60;48.00;;;;;;4997441;28;20815;-63
2023/07/12 03:21:25;;;;;;;0.90;0.90;;;24.60;47.20;;;;;;5000120;28;20489;-62
2023/07/12 03:23:52;;;;;;;1.10;1.00;;;24.60;47.20;;;;;;4997781;28;20961;-62
2023/07/12 03:26:18;;;;;;;1.27;1.17;;;24.60;47.20;;;;;;5000784;28;20238;-62
2023/07/12 03:28:43;;;;;;;1.17;1.17;;;24.60;47.10;;;;;;4998165;28;20452;-62
2023/07/12 03:31:15;;;;;;;1.10;1.00;;;24.60;47.20;;;;;;4998304;28;20679;-62
2023/07/12 03:33:42;;;;;;;1.20;1.10;;;24.70;47.30;;;;;;4996228;28;20270;-61
2023/07/12 03:36:07;;;;;;;1.20;1.10;;;24.60;47.20;;;;;;5001267;28;20450;-62
2023/07/12 03:38:33;;;;;;;1.10;1.00;;;24.60;47.20;;;;;;4996571;28;20449;-62
2023/07/12 03:41:04;;;;;;;1.03;1.00;;;24.60;47.20;;;;;;4997117;28;20227;-63
2023/07/12 03:43:31;;;;;;;1.40;1.30;;;24.60;47.20;;;;;;4999166;28;20219;-62
2023/07/12 03:45:57;;;;;;;1.27;1.17;;;24.60;47.20;;;;;;4998882;28;20910;-62
2023/07/12 03:48:23;;;;;;;0.90;0.90;;;24.70;47.30;;;;;;4995796;28;20478;-61
2023/07/12 03:50:50;;;;;;;1.20;1.10;;;24.60;47.20;;;;;;4997969;28;20452;-62
2023/07/12 03:53:18;;;;;;;1.23;1.13;;;24.60;47.20;;;;;;4997655;28;20465;-62
2023/07/12 03:55:45;;;;;;;0.87;0.87;;;24.60;47.20;;;;;;4999343;28;20498;-62
2023/07/12 03:58:14;;;;;;;1.07;1.03;;;24.60;47.20;;;;;;5000320;28;20476;-62
2023/07/12 04:00:40;;;;;;;1.13;1.03;;;24.60;47.20;;;;;;4998677;28;20473;-62
2023/07/12 04:03:06;;;;;;;0.97;0.93;;;24.60;47.30;;;;;;4996857;28;21006;-62
2023/07/12 04:05:36;;;;;;;1.10;1.00;;;24.60;47.20;;;;;;4998678;28;20458;-62
2023/07/12 04:08:02;;;;;;;0.90;0.90;;;24.60;47.20;;;;;;4995440;28;20219;-62
2023/07/12 04:10:28;;;;;;;1.07;1.00;;;24.60;47.30;;;;;;4997717;28;20453;-62
2023/07/12 04:12:53;;;;;;;1.20;1.10;;;24.60;47.30;;;;;;4997831;28;20229;-62
2023/07/12 04:15:19;;;;;;;1.00;0.90;;;24.60;47.20;;;;;;4998064;28;20683;-62
2023/07/12 04:17:44;;;;;;;1.00;1.00;;;24.60;47.30;;;;;;4997628;28;20302;-63
2023/07/12 04:20:12;;;;;;;1.00;0.93;;;24.60;47.20;;;;;;4998321;28;20344;-63
2023/07/12 04:22:37;;;;;;;1.03;0.97;;;24.60;47.30;;;;;;4998174;28;20239;-62
2023/07/12 04:25:03;;;;;;;1.00;0.90;;;24.60;47.20;;;;;;4997681;28;20444;-63
2023/07/12 04:27:29;;;;;;;0.90;0.90;;;24.60;47.20;;;;;;4998795;28;20232;-62
2023/07/12 04:29:55;;;;;;;0.97;0.90;;;24.60;47.20;;;;;;4987455;28;20548;-62
2023/07/12 04:32:20;;;;;;;0.80;0.80;;;24.60;47.20;;;;;;4997514;28;20603;-62
2023/07/12 04:34:47;;;;;;;1.13;1.03;;;24.60;47.20;;;;;;4996204;28;20215;-62
2023/07/12 04:37:12;;;;;;;1.10;1.00;;;24.60;47.30;;;;;;4997971;28;20298;-62
2023/07/12 04:39:38;;;;;;;0.80;0.80;;;24.60;47.20;;;;;;4996730;28;20813;-63
2023/07/12 04:42:03;;;;;;;0.90;0.90;;;24.60;47.20;;;;;;4995092;28;20545;-62
2023/07/12 04:44:29;;;;;;;0.90;0.90;;;24.60;47.20;;;;;;4997812;28;20750;-63
2023/07/12 04:46:55;;;;;;;0.90;0.90;;;24.60;47.20;;;;;;4983367;28;20684;-62
2023/07/12 04:49:20;;;;;;;1.20;1.10;;;24.70;47.30;;;;;;4994426;28;20628;-64
2023/07/12 04:51:46;;;;;;;0.80;0.80;;;24.70;48.00;;;;;;5001356;28;20223;-62
2023/07/12 04:54:11;;;;;;;1.13;1.03;;;24.70;47.70;;;;;;4998054;28;20853;-62
2023/07/12 04:56:37;;;;;;;1.43;0.90;;;24.70;47.20;;;;;;4998668;28;20889;-61
2023/07/12 04:59:02;;;;;;;1.00;0.90;;;24.70;47.20;;;;;;4996177;28;20710;-63
2023/07/12 05:01:29;;;;;;;1.00;0.90;;;24.70;47.10;;;;;;4997732;28;20246;-61
2023/07/12 05:03:54;;;;;;;0.80;0.80;;;24.70;47.20;;;;;;4993581;28;20224;-63
2023/07/12 05:06:20;;;;;;;0.90;0.90;;;24.70;47.20;;;;;;4996581;28;20475;-62
2023/07/12 05:08:46;;;;;;;0.90;0.90;;;24.70;47.10;;;;;;4995260;28;20222;-61
2023/07/12 05:11:12;;;;;;;0.90;0.90;;;24.70;47.20;;;;;;4996772;28;20230;-61
2023/07/12 05:13:37;;;;;;;1.20;1.10;;;24.70;47.10;;;;;;4993683;28;20579;-63
2023/07/12 05:16:03;;;;;;;1.17;1.07;;;24.70;47.10;;;;;;4999380;28;20218;-62
2023/07/12 05:18:29;;;;;;;0.90;0.90;;;24.70;47.10;;;;;;4990635;28;20354;-62
2023/07/12 05:20:54;;;;;;;0.80;0.80;;;24.70;47.10;;;;;;4998539;28;20318;-63
2023/07/12 05:23:20;;;;;;;0.93;0.90;;;24.70;47.10;;;;;;4997468;28;20230;-61
2023/07/12 05:25:53;;;;;;;0.97;0.97;;;24.70;47.20;;;;;;4997139;28;20233;-62
2023/07/12 05:28:19;;;;;;;0.80;0.80;;;24.70;47.10;;;;;;4996142;28;20456;-61
2023/07/12 05:30:44;;;;;;;0.90;0.90;;;24.70;47.10;;;;;;4998116;28;20445;-63
2023/07/12 05:33:10;;;;;;;0.83;0.83;;;24.70;47.10;;;;;;4986737;28;20224;-62
2023/07/12 05:35:36;;;;;;;0.90;0.90;;;24.70;47.10;;;;;;4995894;28;20816;-62
2023/07/12 05:38:02;;;;;;;0.90;0.90;;;24.80;47.20;;;;;;4994296;28;20222;-62
2023/07/12 05:40:29;;;;;;;0.90;0.90;;;24.80;47.20;;;;;;4998572;28;20246;-61
2023/07/12 05:42:56;;;;;;;0.80;0.80;;;24.80;47.20;;;;;;4996469;28;20467;-62
2023/07/12 05:45:21;;;;;;;1.33;1.23;;;24.80;47.20;;;;;;4997321;28;20468;-62
2023/07/12 05:47:47;;;;;;;0.80;0.80;;;24.80;47.20;;;;;;4997279;28;20445;-62
2023/07/12 05:50:14;;;;;;;0.90;0.90;;;24.80;47.20;;;;;;4998072;28;20238;-62
2023/07/12 05:52:40;;;;;;;0.80;0.80;;;24.80;47.30;;;;;;4998057;28;21031;-62
2023/07/12 05:55:07;;;;;;;0.83;0.83;;;24.80;47.20;;;;;;4995414;28;20515;-62
2023/07/12 05:57:33;;;;;;;0.83;0.83;;;24.80;47.20;;;;;;4999177;28;20228;-61
2023/07/12 06:00:00;;;;;;;0.70;0.70;;;24.80;47.20;;;;;;4997689;28;21042;-62
2023/07/12 06:02:26;;;;;;;0.90;0.90;;;24.80;47.30;;;;;;4994426;28;20777;-63
2023/07/12 06:04:52;;;;;;;0.73;0.73;;;24.80;47.20;;;;;;4995960;28;20515;-62
2023/07/12 06:07:17;;;;;;;0.73;0.73;;;24.80;47.30;;;;;;4995499;28;20314;-62
2023/07/12 06:09:43;;;;;;;0.90;0.90;;;24.80;48.00;;;;;;4995362;28;20249;-62
2023/07/12 06:12:09;;;;;;;0.93;0.93;;;24.80;47.20;;;;;;4995019;28;20223;-61
2023/07/12 06:14:35;;;;;;;0.90;0.90;;;24.80;47.20;;;;;;4995269;28;20288;-63
2023/07/12 06:17:01;;;;;;;0.97;0.93;;;24.80;47.20;;;;;;4979647;28;20440;-62
2023/07/12 06:19:26;;;;;;;1.07;0.87;;;24.80;47.30;;;;;;4996568;28;20243;-63
2023/07/12 06:21:52;;;;;;;0.80;0.80;;;24.80;47.20;;;;;;4994486;28;20266;-62
2023/07/12 06:24:18;;;;;;;1.10;1.10;;;24.80;47.20;;;;;;4995111;28;20552;-61
2023/07/12 06:26:44;;;;;;;0.80;0.80;;;24.80;47.30;;;;;;4998965;28;20255;-61
2023/07/12 06:29:09;;;;;;;0.70;0.70;;;24.80;47.30;;;;;;4993858;28;20290;-63
2023/07/12 06:31:35;;;;;;;0.80;0.80;;;24.80;47.30;;;;;;4995858;28;20232;-62
2023/07/12 06:34:03;;;;;;;0.90;0.90;;;24.80;47.20;;;;;;4994591;28;20230;-63
2023/07/12 06:36:32;;;;;;;0.73;0.73;;;24.80;47.20;;;;;;4997504;28;20237;-61
2023/07/12 06:38:58;;;;;;;0.70;0.70;;;24.80;47.30;;;;;;4998446;28;20457;-64
2023/07/12 06:41:23;;;;;;;0.80;0.80;;;24.80;47.20;;;;;;4989510;28;20461;-62
2023/07/12 06:43:49;;;;;;;0.70;0.70;;;24.80;47.20;;;;;;4996904;28;20225;-62
2023/07/12 06:46:15;;;;;;;0.80;0.77;;;24.80;47.30;;;;;;5001950;28;20227;-61
2023/07/12 06:48:40;;;;;;;1.00;0.90;;;24.80;47.20;;;;;;4999473;28;20326;-62
2023/07/12 06:51:06;;;;;;;1.50;0.70;;;24.80;47.30;;;;;;5001653;28;20315;-62
2023/07/12 06:53:31;;;;;;;0.80;0.80;;;24.80;47.20;;;;;;4996731;28;20314;-62
2023/07/12 06:55:57;;;;;;;0.80;0.80;;;24.80;47.30;;;;;;4999294;28;20271;-62
2023/07/12 06:58:23;;;;;;;1.00;0.90;;;24.80;47.30;;;;;;4998340;28;20234;-62
2023/07/12 07:00:49;;;;;;;1.13;1.03;;;24.80;47.20;;;;;;5000187;28;20231;-61
2023/07/12 07:03:16;;;;;;;0.80;0.80;;;24.80;47.20;;;;;;4997803;28;20687;-62
2023/07/12 07:05:44;;;;;;;0.97;0.80;;;24.80;48.00;;;;;;4998821;28;20461;-62
2023/07/12 07:08:11;;;;;;;0.90;0.90;;;24.80;47.20;;;;;;4999424;28;20481;-62
2023/07/12 07:10:37;;;;;;;0.80;0.70;;;24.80;47.20;;;;;;5001328;28;20788;-63
2023/07/12 07:13:03;;;;;;;0.90;0.90;;;24.80;47.20;;;;;;4997614;28;20448;-61
2023/07/12 07:15:28;;;;;;;0.87;0.87;;;24.80;47.20;;;;;;4999056;28;20229;-62
2023/07/12 07:17:54;;;;;;;0.87;0.87;;;24.80;47.20;;;;;;4999473;28;20235;-62
2023/07/12 07:20:20;;;;;;;0.80;0.80;;;24.80;47.20;;;;;;4999536;28;20270;-62
2023/07/12 07:22:45;;;;;;;0.83;0.83;;;24.80;47.20;;;;;;4995057;28;20260;-62
2023/07/12 07:25:11;;;;;;;0.80;0.80;;;24.80;47.30;;;;;;4999816;28;20452;-62
2023/07/12 07:27:36;;;;;;;0.80;0.80;;;24.80;47.30;;;;;;5003105;28;20314;-62
2023/07/12 07:30:02;;;;;;;0.70;0.70;;;24.90;47.30;;;;;;4998326;28;20243;-62
2023/07/12 07:32:28;;;;;;;0.67;0.67;;;24.90;47.30;;;;;;4997664;28;20230;-61
2023/07/12 07:34:54;;;;;;;0.70;0.70;;;24.90;47.30;;;;;;5002365;28;21204;-66
2023/07/12 07:37:20;;;;;;;0.77;0.77;;;24.90;47.20;;;;;;5001455;28;20291;-63
2023/07/12 07:39:45;;;;;;;0.73;0.73;;;24.90;47.30;;;;;;4997762;28;20539;-62
2023/07/12 07:42:11;;;;;;;0.70;0.70;;;24.90;47.30;;;;;;4997009;28;20707;-61
2023/07/12 07:44:37;;;;;;;0.80;0.80;;;24.90;47.30;;;;;;4998905;28;20310;-63
2023/07/12 07:47:03;;;;;;;0.80;0.80;;;24.90;47.30;;;;;;4996989;28;20253;-62
2023/07/12 07:49:28;;;;;;;0.80;0.80;;;24.90;47.30;;;;;;4995363;28;20298;-63
2023/07/12 07:51:54;;;;;;;0.90;0.90;;;24.90;47.30;;;;;;4994157;28;20448;-62
2023/07/12 07:54:20;;;;;;;0.80;0.80;;;24.90;47.20;;;;;;4996423;28;20719;-62
2023/07/12 07:56:45;;;;;;;0.80;0.80;;;24.90;47.30;;;;;;5000549;28;20223;-63
2023/07/12 07:59:12;;;;;;;1.03;0.90;;;24.90;47.30;;;;;;4992895;28;20236;-62
2023/07/12 08:01:37;;;;;;;0.80;0.80;;;24.90;47.30;;;;;;4996422;28;20673;-62
2023/07/12 08:04:04;;;;;;;0.70;0.70;;;24.90;47.20;;;;;;4993137;28;20457;-62
2023/07/12 08:06:29;;;;;;;1.10;1.00;;;24.90;47.30;;;;;;4998695;28;20745;-63
2023/07/12 08:08:55;;;;;;;0.80;0.80;;;24.90;47.20;;;;;;4993363;28;20461;-63
2023/07/12 08:11:20;;;;;;;0.80;0.80;;;24.90;47.30;;;;;;5000210;28;20236;-62
2023/07/12 08:13:46;;;;;;;0.80;0.80;;;24.90;47.30;;;;;;4995660;28;20380;-62
2023/07/12 08:16:11;;;;;;;0.80;0.80;;;24.90;47.20;;;;;;4997402;28;20691;-61
2023/07/12 08:18:38;;;;;;;0.80;0.80;;;24.90;47.20;;;;;;4996620;28;20273;-61
2023/07/12 08:21:03;;;;;;;1.07;0.97;;;24.90;47.20;;;;;;4998450;28;20243;-62
2023/07/12 08:23:29;;;;;;;0.80;0.80;;;24.90;47.30;;;;;;4993105;28;20467;-61
2023/07/12 08:25:55;;;;;;;0.90;0.80;;;24.90;47.20;;;;;;4998429;28;20235;-63
2023/07/12 08:28:21;;;;;;;0.80;0.80;;;24.90;47.20;;;;;;4996419;28;20230;-62
2023/07/12 08:30:47;;;;;;;0.77;0.70;;;24.90;47.20;;;;;;4998616;28;20215;-63
2023/07/12 08:33:13;;;;;;;0.70;0.70;;;24.90;47.30;;;;;;4999031;28;20508;-63
2023/07/12 08:35:39;;;;;;;0.70;0.70;;;24.90;47.20;;;;;;4996694;28;20227;-61
2023/07/12 08:38:05;;;;;;;0.80;0.80;;;24.90;47.20;;;;;;4996454;28;20922;-61
2023/07/12 08:40:30;;;;;;;0.80;0.80;;;25.00;47.30;;;;;;4997080;28;20469;-64
2023/07/12 08:42:56;;;;;;;1.00;0.90;;;25.00;47.30;;;;;;4995994;28;20318;-62
2023/07/12 08:45:28;;;;;;;0.87;0.87;;;24.90;47.20;;;;;;4997484;28;20223;-63
2023/07/12 08:48:00;;;;;;;1.00;0.80;;;24.90;47.30;;;;;;4996152;28;20302;-62
2023/07/12 08:50:29;;;;;;;0.80;0.80;;;25.00;47.30;;;;;;4997558;28;21053;-62
2023/07/12 08:52:55;;;;;;;0.80;0.80;;;25.00;47.30;;;;;;4994837;28;20583;-61
2023/07/12 08:55:22;;;;;;;0.80;0.80;;;24.90;47.20;;;;;;4987460;28;20472;-62
2023/07/12 08:58:02;;;;;;;0.70;0.70;;;24.90;47.20;;;;;;4997123;28;20217;-61
2023/07/12 09:00:32;;;;;;;0.90;0.87;;;24.90;47.20;;;;;;4997927;28;20518;-62
2023/07/12 09:02:58;;;;;;;0.70;0.70;;;24.90;47.20;;;;;;4994606;28;20508;-63
2023/07/12 09:05:24;;;;;;;0.73;0.73;;;24.90;47.20;;;;;;4994373;28;20534;-61
2023/07/12 09:08:08;;;;;;;0.90;0.90;;;25.00;47.30;;;;;;4998568;28;20441;-62
2023/07/12 09:10:40;;;;;;;0.80;0.80;;;25.00;47.30;;;;;;4998931;28;20824;-61
2023/07/12 09:13:09;;;;;;;1.00;0.90;;;25.00;47.30;;;;;;4992507;28;20465;-62
2023/07/12 09:15:40;;;;;;;1.10;1.00;;;25.00;47.30;;;;;;4997763;28;20852;-62
2023/07/12 09:18:08;;;;;;;0.77;0.77;;;25.00;47.30;;;;;;4995077;28;20452;-63
2023/07/12 09:20:39;;;;;;;0.70;0.70;;;24.90;47.20;;;;;;4996808;28;20477;-61
2023/07/12 09:23:08;;;;;;;0.90;0.90;;;25.00;47.30;;;;;;4999643;28;20461;-62
2023/07/12 09:25:38;;;;;;;0.77;0.77;;;25.00;47.30;;;;;;4996124;28;20503;-64
2023/07/12 09:28:05;;;;;;;1.20;1.00;;;25.00;47.30;;;;;;4999657;28;20460;-62
2023/07/12 09:30:32;;;;;;;0.80;0.80;;;25.00;47.30;;;;;;4996903;28;20457;-63
2023/07/12 09:32:57;;;;;;;0.80;0.80;;;25.00;47.30;;;;;;4999911;28;20476;-62
2023/07/12 09:35:25;;;;;;;0.80;0.80;;;25.00;47.30;;;;;;4998503;28;20872;-61
2023/07/12 09:37:59;;;;;;;1.10;1.00;;;25.00;47.30;;;;;;4991039;28;20811;-62
2023/07/12 09:40:29;;;;;;;0.80;0.80;;;25.00;47.30;;;;;;4998265;28;20460;-62
2023/07/12 09:43:02;;;;;;;0.93;0.90;;;25.00;47.30;;;;;;4995728;28;21451;-63
2023/07/12 09:45:34;;;;;;;0.80;0.80;;;25.00;47.20;;;;;;4995828;28;20464;-62
2023/07/12 09:48:17;;;;;;;0.93;0.90;;;25.00;47.20;;;;;;4995046;28;20457;-63
2023/07/12 09:50:58;;;;;;;1.03;1.00;;;25.00;47.20;;;;;;4998964;28;20555;-62
2023/07/12 09:53:52;;;;;;;0.80;0.80;;;25.00;47.20;;;;;;4991905;28;20460;-62
2023/07/12 09:56:27;;;;;;;0.90;0.90;;;25.00;47.20;;;;;;4996771;28;21018;-62
2023/07/12 09:59:28;;;;;;;1.10;1.00;;;25.00;47.20;;;;;;4993708;28;20457;-62
2023/07/12 10:01:59;;;;;;;1.50;0.90;;;25.00;47.20;;;;;;4994567;28;20523;-62
2023/07/12 10:05:00;;;;;;;0.90;0.90;;;25.00;47.30;;;;;;4995308;28;20531;-62
2023/07/12 10:07:53;;;;;;;0.87;0.87;;;25.00;47.30;;;;;;4990352;28;20464;-63
2023/07/12 10:10:24;;;;;;;0.90;0.90;;;25.00;47.30;;;;;;4994800;28;20466;-62
2023/07/12 10:13:09;;;;;;;1.20;1.10;;;25.00;47.30;;;;;;4994936;28;20484;-62
2023/07/12 10:15:37;;;;;;;0.90;0.83;;;25.00;47.20;;;;;;4994865;28;20471;-61
2023/07/12 10:18:04;;;;;;;0.90;0.80;;;25.00;47.30;;;;;;4993322;28;20472;-62
2023/07/12 10:20:29;;;;;;;0.80;0.80;;;25.00;47.20;;;;;;4995682;28;20534;-64
2023/07/12 10:22:56;;;;;;;0.80;0.80;;;25.00;47.20;;;;;;4996139;28;20448;-61
2023/07/12 10:25:22;;;;;;;0.90;0.90;;;25.00;47.20;;;;;;4996024;28;20222;-63
2023/07/12 10:27:58;;;;;;;0.93;0.90;;;25.00;47.20;;;;;;4993547;28;20512;-63
2023/07/12 10:30:26;;;;;;;1.63;1.53;;;25.00;47.20;;;;;;4995632;28;20265;-62
2023/07/12 10:33:15;;;;;;;1.20;1.10;;;25.00;47.20;;;;;;4993254;28;20449;-62
2023/07/12 10:35:47;;;;;;;0.80;0.80;;;25.00;47.20;;;;;;4996197;28;20491;-62
2023/07/12 10:38:16;;;;;;;1.00;0.90;;;25.00;47.20;;;;;;4996475;28;20453;-61
2023/07/12 10:40:58;;;;;;;0.80;0.80;;;25.00;47.20;;;;;;4996698;28;20551;-62
2023/07/12 10:43:45;;;;;;;0.97;0.97;;;25.00;47.20;;;;;;4994530;28;20442;-62
2023/07/12 10:46:21;;;;;;;0.73;0.73;;;25.00;47.20;;;;;;4993351;28;20487;-64
2023/07/12 10:48:51;;;;;;;1.13;1.03;;;25.00;47.20;;;;;;4995588;28;20513;-63
2023/07/12 10:51:27;;;;;;;1.10;1.00;;;25.00;47.20;;;;;;4995924;28;20507;-63
2023/07/12 10:53:54;;;;;;;0.90;0.80;;;25.00;47.20;;;;;;4995787;28;20536;-62
2023/07/12 10:56:35;;;;;;;1.10;1.00;;;25.00;47.20;;;;;;4995003;28;20531;-61
2023/07/12 10:59:04;;;;;;;1.63;0.80;;;25.00;47.10;;;;;;4993147;28;20461;-64
2023/07/12 11:01:45;;;;;;;0.83;0.83;;;25.00;47.20;;;;;;4996430;28;20480;-62
2023/07/12 11:04:17;;;;;;;1.00;0.90;;;25.00;47.20;;;;;;4993665;28;20584;-63
2023/07/12 11:07:03;;;;;;;1.43;0.90;;;25.00;47.20;;;;;;4995830;28;20451;-63
2023/07/12 11:09:47;;;;;;;0.90;0.90;;;25.00;47.20;;;;;;4993684;28;20524;-61
2023/07/12 11:12:15;;;;;;;1.00;0.90;;;25.00;47.20;;;;;;4994410;28;20531;-64
2023/07/12 11:14:43;;;;;;;0.90;0.90;;;25.00;47.20;;;;;;4992099;28;20470;-62
2023/07/12 11:17:09;;;;;;;1.20;0.90;;;25.00;47.20;;;;;;4994626;28;20463;-62
2023/07/12 11:19:40;;;;;;;1.20;1.10;;;25.00;47.20;;;;;;4993545;28;20543;-63
2023/07/12 11:22:42;;;;;;;1.00;1.00;;;25.00;47.20;;;;;;4997151;28;20800;-62
2023/07/12 11:25:38;;;;;;;1.13;1.03;;;25.00;47.20;;;;;;4997155;28;20456;-64
2023/07/12 11:28:20;;;;;;;0.80;0.80;;;25.00;47.20;;;;;;4993803;28;20948;-62
2023/07/12 11:30:47;;;;;;;0.80;0.80;;;25.00;47.20;;;;;;4995246;28;20456;-62
2023/07/12 11:33:29;;;;;;;0.90;0.90;;;25.00;47.20;;;;;;4995448;28;20441;-63
2023/07/12 11:36:04;;;;;;;1.30;1.17;;;25.00;47.20;;;;;;4999965;28;20449;-62
2023/07/12 11:38:33;;;;;;;0.97;0.97;;;25.00;47.20;;;;;;4998081;28;20976;-63
2023/07/12 11:41:04;;;;;;;1.00;1.00;;;25.00;47.20;;;;;;4999474;28;20892;-62
2023/07/12 11:43:34;;;;;;;0.90;0.90;;;25.00;47.10;;;;;;4995277;28;20809;-65
2023/07/12 11:46:01;;;;;;;0.80;0.80;;;25.00;47.20;;;;;;4998419;28;20481;-63
2023/07/12 11:48:31;;;;;;;1.10;1.00;;;25.00;47.10;;;;;;4995455;28;20511;-62
2023/07/12 11:51:01;;;;;;;0.90;0.90;;;25.00;47.10;;;;;;4999243;28;20556;-62
2023/07/12 11:53:27;;;;;;;0.80;0.80;;;25.00;47.10;;;;;;4998441;28;20553;-62
2023/07/12 11:55:56;;;;;;;0.90;0.90;;;25.00;47.80;;;;;;4998944;28;20568;-62
2023/07/12 11:58:27;;;;;;;1.20;1.10;;;25.00;47.10;;;;;;4998563;28;20234;-63
2023/07/12 12:00:56;;;;;;;0.90;0.90;;;25.00;47.10;;;;;;4997902;28;20536;-62
2023/07/12 12:03:22;;;;;;;0.83;0.83;;;25.00;47.10;;;;;;4993414;28;20503;-61
2023/07/12 12:05:48;;;;;;;0.90;0.90;;;25.00;47.10;;;;;;5001391;28;20460;-63
2023/07/12 12:08:26;;;;;;;0.80;0.80;;;25.00;47.80;;;;;;4998611;28;20445;-62
2023/07/12 12:10:54;;;;;;;1.00;0.93;;;25.00;47.10;;;;;;4998112;28;20215;-62
2023/07/12 12:13:20;;;;;;;0.97;0.87;;;25.00;47.10;;;;;;4994432;28;20484;-63
2023/07/12 12:16:06;;;;;;;0.90;0.90;;;25.00;47.10;;;;;;4997902;28;20440;-62
2023/07/12 12:18:33;;;;;;;0.93;0.93;;;25.00;47.10;;;;;;4995789;28;20680;-62
2023/07/12 12:21:17;;;;;;;1.10;1.00;;;25.00;47.10;;;;;;4997179;28;20563;-64
2023/07/12 12:23:55;;;;;;;0.90;0.90;;;25.00;47.10;;;;;;4996256;28;20443;-64
2023/07/12 12:26:41;;;;;;;1.10;1.00;;;25.00;47.10;;;;;;4996968;28;20927;-63
2023/07/12 12:29:23;;;;;;;1.07;1.00;;;25.00;47.20;;;;;;4998537;28;20461;-63
2023/07/12 12:31:53;;;;;;;0.90;0.90;;;25.00;47.10;;;;;;5000118;28;20532;-62
2023/07/12 12:34:20;;;;;;;0.83;0.83;;;25.00;47.10;;;;;;4995114;28;20465;-63
2023/07/12 12:37:07;;;;;;;1.10;1.00;;;25.00;47.10;;;;;;4998093;28;21015;-62
2023/07/12 12:39:34;;;;;;;0.80;0.80;;;25.00;47.10;;;;;;4996592;28;20460;-62
2023/07/12 12:42:19;;;;;;;1.10;1.00;;;25.00;47.20;;;;;;4997804;28;20499;-63
2023/07/12 12:44:44;;;;;;;1.03;1.00;;;25.00;47.20;;;;;;4996309;28;20567;-63
2023/07/12 12:47:22;;;;;;;1.00;0.90;;;25.00;47.10;;;;;;5001361;28;20556;-63
2023/07/12 12:49:48;;;;;;;1.00;1.00;;;25.00;47.10;;;;;;4998374;28;20703;-64
2023/07/12 12:52:25;;;;;;;1.10;1.03;;;25.00;47.10;;;;;;4998503;28;20468;-64
2023/07/12 12:54:53;;;;;;;1.07;0.97;;;25.00;47.10;;;;;;4994828;28;20522;-65